sensor_id;sensor_type;location;lat;lon;timestamp;pressure;altitude;pressure_sealevel;temperature;humidity
65131;BME280;51709;54.912;8.316;2023-05-19T00:00:45;102970.75;;;9.48;64.75
65131;BME280;51709;54.912;8.316;2023-05-19T00:06:10;102974.06;;;9.43;64.94
65131;BME280;51709;54.912;8.316;2023-05-19T00:11:32;102977.44;;;9.38;64.92
65131;BME280;51709;54.912;8.316;2023-05-19T00:16:53;102973.91;;;9.33;65.13
65131;BME280;51709;54.912;8.316;2023-05-19T00:22:15;102973.84;;;9.30;65.43
65131;BME280;51709;54.912;8.316;2023-05-19T00:27:36;102972.09;;;9.28;65.10
65131;BME280;51709;54.912;8.316;2023-05-19T00:32:57;102969.38;;;9.20;65.36
65131;BME280;51709;54.912;8.316;2023-05-19T00:38:18;102963.31;;;9.15;65.56
65131;BME280;51709;54.912;8.316;2023-05-19T00:43:38;102963.25;;;9.12;65.46
65131;BME280;51709;54.912;8.316;2023-05-19T00:48:59;102962.28;;;9.06;65.65
65131;BME280;51709;54.912;8.316;2023-05-19T00:54:20;102954.59;;;9.05;65.50
65131;BME280;51709;54.912;8.316;2023-05-19T00:59:41;102951.19;;;9.04;65.54
65131;BME280;51709;54.912;8.316;2023-05-19T01:05:01;102950.22;;;8.99;65.74
65131;BME280;51709;54.912;8.316;2023-05-19T01:10:22;102946.81;;;8.99;65.55
65131;BME280;51709;54.912;8.316;2023-05-19T01:27:06;102950.78;;;8.86;65.72
65131;BME280;51709;54.912;8.316;2023-05-19T01:32:30;102949.91;;;8.84;65.83
65131;BME280;51709;54.912;8.316;2023-05-19T01:37:57;102938.78;;;8.82;65.68
65131;BME280;51709;54.912;8.316;2023-05-19T01:43:23;102936.91;;;8.74;65.88
65131;BME280;51709;54.912;8.316;2023-05-19T01:48:44;102941.84;;;8.65;66.07
65131;BME280;51709;54.912;8.316;2023-05-19T01:54:05;102942.50;;;8.55;66.08
65131;BME280;51709;54.912;8.316;2023-05-19T02:05:22;102928.56;;;8.43;66.43
65131;BME280;51709;54.912;8.316;2023-05-19T02:10:55;102928.38;;;8.34;66.47
65131;BME280;51709;54.912;8.316;2023-05-19T02:16:17;102924.81;;;8.27;66.46
65131;BME280;51709;54.912;8.316;2023-05-19T02:21:41;102918.72;;;8.22;66.44
65131;BME280;51709;54.912;8.316;2023-05-19T02:27:02;102911.78;;;8.18;66.49
65131;BME280;51709;54.912;8.316;2023-05-19T02:32:22;102913.47;;;8.16;66.53
65131;BME280;51709;54.912;8.316;2023-05-19T02:37:43;102921.91;;;8.13;66.63
65131;BME280;51709;54.912;8.316;2023-05-19T02:43:04;102915.75;;;8.04;66.60
65131;BME280;51709;54.912;8.316;2023-05-19T02:48:25;102919.88;;;7.98;66.82
65131;BME280;51709;54.912;8.316;2023-05-19T02:53:45;102917.00;;;7.84;66.99
65131;BME280;51709;54.912;8.316;2023-05-19T02:59:06;102916.06;;;7.81;67.10
65131;BME280;51709;54.912;8.316;2023-05-19T03:04:27;102909.13;;;7.75;66.99
65131;BME280;51709;54.912;8.316;2023-05-19T03:09:48;102911.69;;;7.75;66.94
65131;BME280;51709;54.912;8.316;2023-05-19T03:15:09;102908.13;;;7.70;66.98
65131;BME280;51709;54.912;8.316;2023-05-19T03:20:32;102902.09;;;7.66;67.49
65131;BME280;51709;54.912;8.316;2023-05-19T03:25:53;102915.78;;;7.70;67.30
65131;BME280;51709;54.912;8.316;2023-05-19T03:31:16;102909.84;;;7.69;67.42
65131;BME280;51709;54.912;8.316;2023-05-19T03:36:37;102903.94;;;7.72;67.45
65131;BME280;51709;54.912;8.316;2023-05-19T03:42:08;102912.44;;;7.72;67.54
65131;BME280;51709;54.912;8.316;2023-05-19T03:47:29;102909.97;;;7.76;67.69
65131;BME280;51709;54.912;8.316;2023-05-19T03:53:21;102910.88;;;7.78;67.60
65131;BME280;51709;54.912;8.316;2023-05-19T03:58:41;102911.84;;;7.83;67.57
65131;BME280;51709;54.912;8.316;2023-05-19T04:04:03;102904.34;;;7.91;67.44
65131;BME280;51709;54.912;8.316;2023-05-19T04:09:24;102912.09;;;7.94;67.53
65131;BME280;51709;54.912;8.316;2023-05-19T04:14:45;102916.50;;;7.99;67.64
65131;BME280;51709;54.912;8.316;2023-05-19T04:20:06;102913.31;;;8.10;67.55
65131;BME280;51709;54.912;8.316;2023-05-19T04:25:26;102917.81;;;8.20;67.68
65131;BME280;51709;54.912;8.316;2023-05-19T04:30:48;102918.97;;;8.33;67.47
65131;BME280;51709;54.912;8.316;2023-05-19T04:36:10;102933.91;;;8.53;67.49
65131;BME280;51709;54.912;8.316;2023-05-19T04:41:35;102926.66;;;8.74;67.21
65131;BME280;51709;54.912;8.316;2023-05-19T04:46:58;102934.00;;;8.99;67.12
65131;BME280;51709;54.912;8.316;2023-05-19T04:52:19;102933.56;;;9.21;66.86
65131;BME280;51709;54.912;8.316;2023-05-19T04:57:42;102931.38;;;9.43;66.69
65131;BME280;51709;54.912;8.316;2023-05-19T05:03:04;102940.34;;;9.67;66.68
65131;BME280;51709;54.912;8.316;2023-05-19T05:08:26;102947.47;;;9.85;66.76
65131;BME280;51709;54.912;8.316;2023-05-19T05:13:47;102953.69;;;10.01;66.80
65131;BME280;51709;54.912;8.316;2023-05-19T05:19:08;102947.09;;;10.17;66.78
65131;BME280;51709;54.912;8.316;2023-05-19T05:24:30;102948.13;;;10.30;66.82
65131;BME280;51709;54.912;8.316;2023-05-19T05:29:53;102953.47;;;10.42;67.00
65131;BME280;51709;54.912;8.316;2023-05-19T05:35:14;102942.50;;;10.54;66.80
65131;BME280;51709;54.912;8.316;2023-05-19T05:40:36;102951.22;;;10.67;66.90
65131;BME280;51709;54.912;8.316;2023-05-19T05:45:58;102938.63;;;10.86;66.48
65131;BME280;51709;54.912;8.316;2023-05-19T05:51:22;102945.63;;;11.01;66.58
65131;BME280;51709;54.912;8.316;2023-05-19T05:56:43;102952.63;;;11.17;66.52
65131;BME280;51709;54.912;8.316;2023-05-19T06:02:04;102957.94;;;11.31;66.41
65131;BME280;51709;54.912;8.316;2023-05-19T06:07:26;102959.84;;;11.49;66.22
65131;BME280;51709;54.912;8.316;2023-05-19T06:12:47;102961.72;;;11.69;65.82
65131;BME280;51709;54.912;8.316;2023-05-19T06:18:08;102959.31;;;11.87;65.84
65131;BME280;51709;54.912;8.316;2023-05-19T06:23:29;102956.88;;;12.08;65.51
65131;BME280;51709;54.912;8.316;2023-05-19T06:28:50;102965.59;;;12.25;65.67
65131;BME280;51709;54.912;8.316;2023-05-19T06:34:11;102963.09;;;12.41;65.02
65131;BME280;51709;54.912;8.316;2023-05-19T06:47:11;102959.00;;;12.89;64.33
65131;BME280;51709;54.912;8.316;2023-05-19T06:52:32;102976.28;;;13.15;64.07
65131;BME280;51709;54.912;8.316;2023-05-19T06:57:54;102976.31;;;13.32;63.61
65131;BME280;51709;54.912;8.316;2023-05-19T07:03:15;102988.44;;;13.56;63.41
65131;BME280;51709;54.912;8.316;2023-05-19T07:08:36;102989.28;;;13.66;62.82
65131;BME280;51709;54.912;8.316;2023-05-19T07:13:59;103003.94;;;13.83;62.79
65131;BME280;51709;54.912;8.316;2023-05-19T07:19:23;102999.59;;;14.08;62.30
65131;BME280;51709;54.912;8.316;2023-05-19T07:24:46;103001.31;;;14.32;61.85
65131;BME280;51709;54.912;8.316;2023-05-19T07:30:10;102994.31;;;14.66;61.02
65131;BME280;51709;54.912;8.316;2023-05-19T07:35:33;103000.25;;;14.95;60.69
65131;BME280;51709;54.912;8.316;2023-05-19T07:40:54;103007.19;;;14.84;60.45
65131;BME280;51709;54.912;8.316;2023-05-19T07:46:15;103003.81;;;14.60;60.73
65131;BME280;51709;54.912;8.316;2023-05-19T07:51:35;103010.75;;;14.51;60.50
65131;BME280;51709;54.912;8.316;2023-05-19T07:56:56;103015.06;;;14.39;60.51
65131;BME280;51709;54.912;8.316;2023-05-19T08:02:17;103015.00;;;14.72;59.68
65131;BME280;51709;54.912;8.316;2023-05-19T08:07:38;103023.53;;;14.91;59.04
65131;BME280;51709;54.912;8.316;2023-05-19T08:12:58;103020.03;;;15.07;58.50
65131;BME280;51709;54.912;8.316;2023-05-19T08:18:19;103007.78;;;15.37;57.67
65131;BME280;51709;54.912;8.316;2023-05-19T08:23:39;103010.13;;;15.71;56.92
65131;BME280;51709;54.912;8.316;2023-05-19T08:29:00;103013.25;;;16.12;55.84
65131;BME280;51709;54.912;8.316;2023-05-19T08:34:21;103005.06;;;16.54;55.05
65131;BME280;51709;54.912;8.316;2023-05-19T08:39:41;102998.94;;;16.61;54.68
65131;BME280;51709;54.912;8.316;2023-05-19T08:45:02;102991.38;;;17.13;53.69
65131;BME280;51709;54.912;8.316;2023-05-19T08:50:28;102987.72;;;17.83;52.00
65131;BME280;51709;54.912;8.316;2023-05-19T08:56:07;102986.19;;;18.21;51.60
65131;BME280;51709;54.912;8.316;2023-05-19T09:01:30;102981.53;;;18.81;50.54
65131;BME280;51709;54.912;8.316;2023-05-19T09:06:51;102991.25;;;19.14;49.83
65131;BME280;51709;54.912;8.316;2023-05-19T09:12:12;102992.44;;;19.73;48.95
65131;BME280;51709;54.912;8.316;2023-05-19T09:17:34;102990.56;;;20.45;47.48
65131;BME280;51709;54.912;8.316;2023-05-19T09:22:55;102992.34;;;20.75;46.93
65131;BME280;51709;54.912;8.316;2023-05-19T09:28:27;102977.47;;;20.47;46.68
65131;BME280;51709;54.912;8.316;2023-05-19T09:33:51;102970.44;;;20.81;46.06
65131;BME280;51709;54.912;8.316;2023-05-19T09:39:16;102965.88;;;21.16;45.10
65131;BME280;51709;54.912;8.316;2023-05-19T09:44:37;102973.28;;;21.55;44.35
65131;BME280;51709;54.912;8.316;2023-05-19T09:49:58;102976.84;;;21.52;44.78
65131;BME280;51709;54.912;8.316;2023-05-19T09:55:19;102984.53;;;22.09;43.51
65131;BME280;51709;54.912;8.316;2023-05-19T10:00:43;102973.63;;;22.69;42.72
65131;BME280;51709;54.912;8.316;2023-05-19T10:06:04;102980.31;;;23.43;41.78
65131;BME280;51709;54.912;8.316;2023-05-19T10:11:26;102977.50;;;24.10;40.81
65131;BME280;51709;54.912;8.316;2023-05-19T10:16:57;102968.19;;;24.61;39.99
65131;BME280;51709;54.912;8.316;2023-05-19T10:22:18;102968.25;;;25.16;39.13
65131;BME280;51709;54.912;8.316;2023-05-19T10:27:42;102963.72;;;25.54;38.46
65131;BME280;51709;54.912;8.316;2023-05-19T10:33:06;102952.25;;;25.20;39.01
65131;BME280;51709;54.912;8.316;2023-05-19T10:38:40;102946.88;;;25.41;37.99
65131;BME280;51709;54.912;8.316;2023-05-19T10:49:55;102951.25;;;24.69;38.84
65131;BME280;51709;54.912;8.316;2023-05-19T11:01:15;102936.72;;;25.16;37.13
65131;BME280;51709;54.912;8.316;2023-05-19T11:06:36;102960.06;;;25.39;37.19
65131;BME280;51709;54.912;8.316;2023-05-19T11:12:01;102941.75;;;25.20;36.70
65131;BME280;51709;54.912;8.316;2023-05-19T11:17:23;102954.41;;;23.99;37.96
65131;BME280;51709;54.912;8.316;2023-05-19T11:23:00;102942.28;;;23.55;38.30
65131;BME280;51709;54.912;8.316;2023-05-19T11:28:22;102949.06;;;23.38;38.03
65131;BME280;51709;54.912;8.316;2023-05-19T11:33:47;102943.41;;;23.49;37.65
65131;BME280;51709;54.912;8.316;2023-05-19T11:39:08;102936.88;;;23.58;37.34
65131;BME280;51709;54.912;8.316;2023-05-19T11:44:30;102934.06;;;23.83;36.79
65131;BME280;51709;54.912;8.316;2023-05-19T11:49:51;102937.34;;;24.09;36.50
65131;BME280;51709;54.912;8.316;2023-05-19T11:55:21;102938.13;;;23.70;36.96
65131;BME280;51709;54.912;8.316;2023-05-19T12:00:43;102942.25;;;23.34;37.59
65131;BME280;51709;54.912;8.316;2023-05-19T12:06:05;102951.13;;;22.87;37.99
65131;BME280;51709;54.912;8.316;2023-05-19T12:11:27;102946.28;;;22.76;38.39
65131;BME280;51709;54.912;8.316;2023-05-19T12:16:48;102950.91;;;23.36;37.37
65131;BME280;51709;54.912;8.316;2023-05-19T12:22:09;102936.75;;;24.03;36.61
65131;BME280;51709;54.912;8.316;2023-05-19T12:27:34;102937.09;;;25.08;35.43
65131;BME280;51709;54.912;8.316;2023-05-19T12:32:56;102935.56;;;25.90;34.54
65131;BME280;51709;54.912;8.316;2023-05-19T12:38:18;102929.34;;;26.09;34.34
65131;BME280;51709;54.912;8.316;2023-05-19T12:43:40;102931.50;;;26.34;34.30
65131;BME280;51709;54.912;8.316;2023-05-19T12:49:00;102941.56;;;26.74;33.74
65131;BME280;51709;54.912;8.316;2023-05-19T12:54:21;102934.97;;;27.13;33.39
65131;BME280;51709;54.912;8.316;2023-05-19T12:59:42;102924.25;;;26.86;33.61
65131;BME280;51709;54.912;8.316;2023-05-19T13:05:02;102911.47;;;26.32;34.18
65131;BME280;51709;54.912;8.316;2023-05-19T13:10:25;102904.38;;;26.80;33.61
65131;BME280;51709;54.912;8.316;2023-05-19T13:16:07;102920.63;;;26.24;34.34
65131;BME280;51709;54.912;8.316;2023-05-19T13:21:47;102910.94;;;26.41;33.99
65131;BME280;51709;54.912;8.316;2023-05-19T13:27:09;102910.41;;;26.50;33.58
65131;BME280;51709;54.912;8.316;2023-05-19T13:32:30;102904.06;;;26.54;33.13
65131;BME280;51709;54.912;8.316;2023-05-19T13:37:51;102897.00;;;26.55;33.13
65131;BME280;51709;54.912;8.316;2023-05-19T13:43:12;102895.13;;;26.57;32.87
65131;BME280;51709;54.912;8.316;2023-05-19T13:48:32;102897.72;;;26.73;32.95
65131;BME280;51709;54.912;8.316;2023-05-19T13:53:53;102895.03;;;26.42;33.37
65131;BME280;51709;54.912;8.316;2023-05-19T13:59:14;102885.19;;;25.64;34.57
65131;BME280;51709;54.912;8.316;2023-05-19T14:04:37;102879.75;;;24.81;35.43
65131;BME280;51709;54.912;8.316;2023-05-19T14:09:58;102886.13;;;24.20;36.62
65131;BME280;51709;54.912;8.316;2023-05-19T14:15:19;102886.75;;;23.87;36.55
65131;BME280;51709;54.912;8.316;2023-05-19T14:20:39;102881.63;;;23.83;36.64
65131;BME280;51709;54.912;8.316;2023-05-19T14:26:00;102874.13;;;23.95;36.95
65131;BME280;51709;54.912;8.316;2023-05-19T14:31:21;102880.47;;;23.70;37.14
65131;BME280;51709;54.912;8.316;2023-05-19T14:36:42;102865.22;;;23.38;37.88
65131;BME280;51709;54.912;8.316;2023-05-19T14:42:03;102852.66;;;23.26;38.04
65131;BME280;51709;54.912;8.316;2023-05-19T14:47:24;102863.72;;;23.33;38.13
65131;BME280;51709;54.912;8.316;2023-05-19T14:52:46;102857.78;;;23.69;37.72
65131;BME280;51709;54.912;8.316;2023-05-19T14:58:07;102866.88;;;23.81;38.16
65131;BME280;51709;54.912;8.316;2023-05-19T15:03:47;102860.38;;;24.28;38.20
65131;BME280;51709;54.912;8.316;2023-05-19T15:09:08;102868.03;;;25.06;37.25
65131;BME280;51709;54.912;8.316;2023-05-19T15:14:31;102861.28;;;25.00;37.31
65131;BME280;51709;54.912;8.316;2023-05-19T15:19:52;102860.72;;;25.46;37.07
65131;BME280;51709;54.912;8.316;2023-05-19T15:25:12;102865.00;;;26.46;36.22
65131;BME280;51709;54.912;8.316;2023-05-19T15:30:33;102862.09;;;27.99;34.39
65131;BME280;51709;54.912;8.316;2023-05-19T15:35:54;102873.91;;;29.16;32.86
65131;BME280;51709;54.912;8.316;2023-05-19T15:41:15;102865.38;;;30.01;31.92
65131;BME280;51709;54.912;8.316;2023-05-19T15:46:35;102867.28;;;28.42;33.48
65131;BME280;51709;54.912;8.316;2023-05-19T15:51:56;102868.66;;;26.90;34.78
65131;BME280;51709;54.912;8.316;2023-05-19T15:57:17;102867.28;;;26.05;35.04
65131;BME280;51709;54.912;8.316;2023-05-19T16:02:37;102864.97;;;25.31;35.35
65131;BME280;51709;54.912;8.316;2023-05-19T16:07:58;102871.47;;;25.06;35.00
65131;BME280;51709;54.912;8.316;2023-05-19T16:13:20;102863.16;;;24.81;34.86
65131;BME280;51709;54.912;8.316;2023-05-19T16:18:40;102870.31;;;25.30;34.01
65131;BME280;51709;54.912;8.316;2023-05-19T16:24:03;102854.16;;;25.37;33.67
65131;BME280;51709;54.912;8.316;2023-05-19T16:29:24;102867.63;;;24.79;34.42
65131;BME280;51709;54.912;8.316;2023-05-19T16:34:45;102851.69;;;24.45;35.06
65131;BME280;51709;54.912;8.316;2023-05-19T16:40:06;102848.91;;;24.67;34.69
65131;BME280;51709;54.912;8.316;2023-05-19T16:45:27;102855.88;;;24.86;34.38
65131;BME280;51709;54.912;8.316;2023-05-19T16:50:48;102856.69;;;23.94;35.33
65131;BME280;51709;54.912;8.316;2023-05-19T16:56:09;102857.47;;;23.15;36.23
65131;BME280;51709;54.912;8.316;2023-05-19T17:01:30;102858.31;;;22.94;36.52
65131;BME280;51709;54.912;8.316;2023-05-19T17:06:50;102864.69;;;22.67;36.82
65131;BME280;51709;54.912;8.316;2023-05-19T17:12:11;102860.44;;;22.18;37.01
65131;BME280;51709;54.912;8.316;2023-05-19T17:17:32;102863.25;;;21.64;37.69
65131;BME280;51709;54.912;8.316;2023-05-19T17:22:53;102867.69;;;21.10;38.64
65131;BME280;51709;54.912;8.316;2023-05-19T17:28:13;102871.94;;;20.86;38.98
65131;BME280;51709;54.912;8.316;2023-05-19T17:33:34;102865.50;;;20.69;39.30
65131;BME280;51709;54.912;8.316;2023-05-19T17:38:55;102862.75;;;20.45;39.68
65131;BME280;51709;54.912;8.316;2023-05-19T17:44:16;102863.81;;;20.38;39.67
65131;BME280;51709;54.912;8.316;2023-05-19T17:49:37;102863.50;;;20.21;39.69
65131;BME280;51709;54.912;8.316;2023-05-19T17:54:59;102865.34;;;19.84;40.37
65131;BME280;51709;54.912;8.316;2023-05-19T18:00:21;102866.31;;;19.48;41.23
65131;BME280;51709;54.912;8.316;2023-05-19T18:05:41;102877.25;;;19.28;41.48
65131;BME280;51709;54.912;8.316;2023-05-19T18:11:04;102884.50;;;19.15;41.30
65131;BME280;51709;54.912;8.316;2023-05-19T18:16:25;102879.81;;;18.92;41.88
65131;BME280;51709;54.912;8.316;2023-05-19T18:21:46;102876.16;;;18.63;42.25
65131;BME280;51709;54.912;8.316;2023-05-19T18:27:07;102871.50;;;18.37;42.57
65131;BME280;51709;54.912;8.316;2023-05-19T18:32:27;102878.13;;;18.11;43.02
65131;BME280;51709;54.912;8.316;2023-05-19T18:37:48;102870.00;;;17.81;43.67
65131;BME280;51709;54.912;8.316;2023-05-19T18:43:09;102865.16;;;17.62;43.99
65131;BME280;51709;54.912;8.316;2023-05-19T18:48:30;102879.44;;;17.36;44.35
65131;BME280;51709;54.912;8.316;2023-05-19T18:53:52;102886.75;;;17.13;44.78
65131;BME280;51709;54.912;8.316;2023-05-19T18:59:13;102891.34;;;16.93;45.16
65131;BME280;51709;54.912;8.316;2023-05-19T19:04:33;102892.56;;;16.68;45.37
65131;BME280;51709;54.912;8.316;2023-05-19T19:09:54;102895.44;;;16.46;45.31
65131;BME280;51709;54.912;8.316;2023-05-19T19:15:14;102896.44;;;16.36;45.02
65131;BME280;51709;54.912;8.316;2023-05-19T19:20:35;102900.81;;;16.32;44.52
65131;BME280;51709;54.912;8.316;2023-05-19T19:25:56;102903.53;;;16.20;44.48
65131;BME280;51709;54.912;8.316;2023-05-19T19:31:16;102910.63;;;16.04;44.25
65131;BME280;51709;54.912;8.316;2023-05-19T19:36:37;102918.63;;;15.79;44.31
65131;BME280;51709;54.912;8.316;2023-05-19T19:41:57;102933.44;;;15.63;44.59
65131;BME280;51709;54.912;8.316;2023-05-19T19:47:18;102928.38;;;15.47;44.62
65131;BME280;51709;54.912;8.316;2023-05-19T19:52:39;102934.47;;;15.35;44.78
65131;BME280;51709;54.912;8.316;2023-05-19T19:58:00;102935.44;;;15.23;44.96
65131;BME280;51709;54.912;8.316;2023-05-19T20:03:21;102937.25;;;15.12;45.19
65131;BME280;51709;54.912;8.316;2023-05-19T20:08:42;102938.19;;;14.99;45.66
65131;BME280;51709;54.912;8.316;2023-05-19T20:14:03;102936.56;;;14.84;45.99
65131;BME280;51709;54.912;8.316;2023-05-19T20:19:24;102936.59;;;14.65;46.47
65131;BME280;51709;54.912;8.316;2023-05-19T20:24:47;102940.97;;;14.47;46.72
65131;BME280;51709;54.912;8.316;2023-05-19T20:30:08;102936.72;;;14.29;47.49
65131;BME280;51709;54.912;8.316;2023-05-19T20:35:30;102941.94;;;14.14;47.97
65131;BME280;51709;54.912;8.316;2023-05-19T20:43:11;102938.53;;;13.98;48.45
65131;BME280;51709;54.912;8.316;2023-05-19T20:48:32;102949.69;;;13.94;48.74
65131;BME280;51709;54.912;8.316;2023-05-19T20:53:52;102945.41;;;13.88;48.79
65131;BME280;51709;54.912;8.316;2023-05-19T20:59:13;102948.00;;;13.86;48.99
65131;BME280;51709;54.912;8.316;2023-05-19T21:04:34;102947.16;;;13.80;49.06
65131;BME280;51709;54.912;8.316;2023-05-19T21:09:54;102951.47;;;13.70;49.35
65131;BME280;51709;54.912;8.316;2023-05-19T21:15:16;102947.16;;;13.63;49.39
65131;BME280;51709;54.912;8.316;2023-05-19T21:20:38;102942.84;;;13.55;49.83
65131;BME280;51709;54.912;8.316;2023-05-19T21:25:58;102954.03;;;13.50;50.07
65131;BME280;51709;54.912;8.316;2023-05-19T21:31:19;102950.56;;;13.41;50.34
65131;BME280;51709;54.912;8.316;2023-05-19T21:36:40;102954.84;;;13.33;50.57
65131;BME280;51709;54.912;8.316;2023-05-19T21:42:02;102948.78;;;13.23;50.64
65131;BME280;51709;54.912;8.316;2023-05-19T21:47:22;102962.53;;;13.12;50.87
65131;BME280;51709;54.912;8.316;2023-05-19T21:52:43;102963.38;;;13.01;51.05
65131;BME280;51709;54.912;8.316;2023-05-19T21:58:03;102966.75;;;12.94;51.08
65131;BME280;51709;54.912;8.316;2023-05-19T22:03:24;102965.03;;;12.87;51.16
65131;BME280;51709;54.912;8.316;2023-05-19T22:08:45;102975.31;;;12.79;51.26
65131;BME280;51709;54.912;8.316;2023-05-19T22:14:06;102969.28;;;12.74;51.14
65131;BME280;51709;54.912;8.316;2023-05-19T22:19:26;102964.94;;;12.65;51.58
65131;BME280;51709;54.912;8.316;2023-05-19T22:24:47;102968.34;;;12.59;51.76
65131;BME280;51709;54.912;8.316;2023-05-19T22:30:08;102965.72;;;12.53;52.11
65131;BME280;51709;54.912;8.316;2023-05-19T22:35:28;102962.25;;;12.45;52.30
65131;BME280;51709;54.912;8.316;2023-05-19T22:40:49;102953.63;;;12.38;52.41
65131;BME280;51709;54.912;8.316;2023-05-19T22:46:10;102949.31;;;12.32;52.60
65131;BME280;51709;54.912;8.316;2023-05-19T22:51:30;102948.41;;;12.26;52.84
65131;BME280;51709;54.912;8.316;2023-05-19T22:56:52;102954.41;;;12.20;53.16
65131;BME280;51709;54.912;8.316;2023-05-19T23:02:12;102956.09;;;12.18;53.50
65131;BME280;51709;54.912;8.316;2023-05-19T23:07:33;102957.81;;;12.16;53.73
65131;BME280;51709;54.912;8.316;2023-05-19T23:12:54;102961.22;;;12.12;53.92
65131;BME280;51709;54.912;8.316;2023-05-19T23:18:14;102955.16;;;12.07;54.34
65131;BME280;51709;54.912;8.316;2023-05-19T23:23:35;102953.41;;;11.99;54.59
65131;BME280;51709;54.912;8.316;2023-05-19T23:28:55;102956.75;;;11.95;54.73
65131;BME280;51709;54.912;8.316;2023-05-19T23:34:16;102966.19;;;11.90;54.87
65131;BME280;51709;54.912;8.316;2023-05-19T23:39:37;102968.72;;;11.85;55.20
65131;BME280;51709;54.912;8.316;2023-05-19T23:44:58;102970.38;;;11.80;55.55
65131;BME280;51709;54.912;8.316;2023-05-19T23:50:18;102971.19;;;11.75;55.66
65131;BME280;51709;54.912;8.316;2023-05-19T23:55:39;102965.16;;;11.69;55.73
